This is the latest recevied weather packets stored in our database for station/object SIILIN. If no packets are shown the sender has not sent any weather packets the latest 1 day(s).
| Time | Temp. | Humidity | Pressure | Rain* | Wind** | Luminosity | Snow |
|---|---|---|---|---|---|---|---|
| 1777979239 | 6.67° C | 53% | 1002.9 hPa | - | 9.39 m/s, 269° | - | - |
| 1777978039 | 6.67° C | 53% | 1002.6 hPa | - | 7.15 m/s, 266° | - | - |
| 1777976838 | 6.11° C | 57% | 1002.4 hPa | - | 7.15 m/s, 268° | - | - |
| 1777975639 | 5.56° C | 61% | 1002.4 hPa | - | 7.15 m/s, 275° | - | - |
| 1777974438 | 4.44° C | 73% | 1002.3 hPa | - | 8.49 m/s, 258° | - | - |
| 1777973238 | 4.44° C | 75% | 1002.2 hPa | - | 6.26 m/s, 251° | - | - |
| 1777972039 | 5° C | 70% | 1002.1 hPa | - | 5.81 m/s, 282° | - | - |
| 1777970839 | 4.44° C | 74% | 1001.9 hPa | - | 6.26 m/s, 278° | - | - |
| 1777969639 | 4.44° C | 75% | 1001.8 hPa | - | 6.71 m/s, 270° | - | - |
| 1777968438 | 3.89° C | 81% | 1001.7 hPa | - | 4.92 m/s, 263° | - | - |
| 1777967238 | 3.33° C | 85% | 1001.6 hPa | - | 6.26 m/s, 280° | - | - |
| 1777966038 | 3.33° C | 87% | 1001.2 hPa | - | 5.81 m/s, 282° | - | - |
| 1777964838 | 3.33° C | 85% | 1000.9 hPa | - | 4.47 m/s, 284° | - | - |
| 1777963638 | 3.33° C | 87% | 1000.6 hPa | - | 3.13 m/s, 292° | - | - |
| 1777962438 | 3.33° C | 88% | 1000.5 hPa | - | 3.13 m/s, 308° | - | - |
| 1777961238 | 2.78° C | 89% | 1000.3 hPa | - | 3.58 m/s, 312° | - | - |
| 1777960038 | 2.78° C | 90% | 1000.2 hPa | - | 5.81 m/s, 324° | - | - |
| 1777958838 | 3.33° C | 88% | 1000 hPa | - | 6.26 m/s, 321° | - | - |
| 1777957638 | 3.33° C | 90% | 999.6 hPa | - | 5.36 m/s, 330° | - | - |
| 1777956438 | 3.33° C | 89% | 999.4 hPa | - | 6.26 m/s, 319° | - | - |
| 1777955237 | 4.44° C | 83% | 999.2 hPa | - | 4.47 m/s, 320° | - | - |
* Rain since midnight (hover to see other rain measurements)
** Current wind speed in m/s (hover to see current wind gust speed)